Flight Track Log - Related Links

Times and Time Zones

All times are in EDT time to prevent confusion due to time zone crossing. See the SWA2005 flight status page for this flight to view local times or setup timezone preferences in your user account.

Time Position Orientation Groundspeed Altitude Reporting Facility
EDT Latitude Longitude Course Direction KTS MPH feet Rate Location/Type
Fri 12:27:26 PM 40.7525 -112.0769 249° West 224 258 7,800  Level Salt Lake Center
Fri 12:28:08 PM 40.7711 -112.1311 294° West 243 280 9,900 2,712 Climbing Salt Lake Center
Fri 12:29:10 PM 40.8314 -112.1978 320° Northwest 292 336 12,500 2,439 Climbing Salt Lake Center
Fri 12:30:11 PM 40.8956 -112.2553 326° Northwest 279 321 14,900 1,854 Climbing Salt Lake Center
Fri 12:31:13 PM 40.9656 -112.3442 316° Northwest 348 400 16,300 1,645 Climbing Salt Lake Center
Fri 12:32:15 PM 41.0394 -112.4369 317° Northwest 363 418 18,300 2,032 Climbing Salt Lake Center
Fri 12:33:17 PM 41.1147 -112.5325 316° Northwest 374 430 20,500 2,098 Climbing Salt Lake Center
Fri 12:34:18 PM 41.2072 -112.6503 316° Northwest 385 443 22,600 2,000 Climbing Salt Lake Center
Fri 12:35:20 PM 41.2869 -112.7514 316° Northwest 394 453 24,600 1,694 Climbing Salt Lake Center
Fri 12:36:22 PM 41.3675 -112.8533 316° Northwest 397 457 26,100 1,707 Climbing Salt Lake Center
Fri 12:37:23 PM 41.4464 -112.9561 316° Northwest 395 455 28,100 2,098 Climbing Salt Lake Center
Fri 12:38:25 PM 41.5225 -113.0539 316° Northwest 385 443 30,400 1,887 Climbing Salt Lake Center
Fri 12:39:27 PM 41.5956 -113.1486 316° Northwest 371 427 32,000 1,707 Climbing Salt Lake Center
Fri 12:40:28 PM 41.6675 -113.2381 317° Northwest 357 411 33,900 976 Climbing Salt Lake Center
Fri 12:41:30 PM 41.7492 -113.3458 315° West 345 397 34,000 48 Climbing Salt Lake Center
Fri 12:42:32 PM 41.8203 -113.4400 315° West 355 409 34,000  Level Salt Lake Center
Fri 12:43:33 PM 41.8911 -113.5325 316° Northwest 357 411 34,000  Level Salt Lake Center
Fri 12:44:35 PM 41.9625 -113.6244 316° Northwest 356 410 34,000  Level Salt Lake Center
Fri 12:45:37 PM 42.0325 -113.7175 315° West 357 411 34,000  Level Salt Lake Center
Fri 12:46:38 PM 42.1047 -113.8119 316° Northwest 360 414 34,000  Level Salt Lake Center
Fri 12:47:40 PM 42.1769 -113.9044 317° Northwest 360 414 34,000  Level Salt Lake Center
Fri 12:48:41 PM 42.2494 -113.9969 317° Northwest 359 413 34,000  Level Salt Lake Center
Fri 12:49:43 PM 42.3317 -114.1119 314° West 356 410 34,000  Level Salt Lake Center
Fri 12:50:45 PM 42.4025 -114.2097 314° West 364 419 34,000  Level Salt Lake Center
Fri 12:51:46 PM 42.4714 -114.3031 315° West 351 404 34,000  Level Salt Lake Center
Fri 12:52:48 PM 42.5417 -114.4000 315° West 357 411 34,000  Level Salt Lake Center
Fri 12:53:50 PM 42.6125 -114.4944 316° Northwest 355 409 34,000  Level Salt Lake Center
Fri 12:54:51 PM 42.6928 -114.6019 315° West 355 409 34,000  Level Salt Lake Center
Fri 12:55:53 PM 42.7594 -114.6933 315° West 356 410 34,000  Level Salt Lake Center
Fri 12:56:54 PM 42.8261 -114.7856 315° West 355 409 34,000  Level Salt Lake Center
Fri 12:57:56 PM 42.9047 -114.8928 315° West 357 411 34,000  Level Salt Lake Center
Fri 12:58:58 PM 42.9717 -114.9853 315° West 359 413 34,000  Level Salt Lake Center
Fri 12:59:59 PM 43.0497 -115.0919 315° West 355 409 34,000  Level Salt Lake Center
Fri 01:01:01 PM 43.1164 -115.1836 315° West 355 409 34,000  Level Salt Lake Center
Fri 01:02:02 PM 43.1825 -115.2778 314° West 357 411 34,000  Level Salt Lake Center
Fri 01:03:04 PM 43.2606 -115.3864 315° West 357 411 34,000  Level Salt Lake Center
Fri 01:04:06 PM 43.3275 -115.4792 315° West 356 410 34,000  Level Salt Lake Center
Fri 01:05:07 PM 43.4053 -115.5900 314° West 358 412 34,000  Level Salt Lake Center
Fri 01:06:09 PM 43.4725 -115.6836 315° West 359 413 34,000  Level Salt Lake Center
Fri 01:07:10 PM 43.5392 -115.7783 314° West 359 413 34,000  Level Salt Lake Center
Fri 01:08:12 PM 43.6175 -115.8889 314° West 359 413 34,000  Level Salt Lake Center
Fri 01:09:13 PM 43.6839 -115.9842 314° West 359 413 34,000  Level Salt Lake Center
Fri 01:10:15 PM 43.7611 -116.0942 314° West 356 410 34,000  Level Salt Lake Center
Fri 01:11:17 PM 43.8278 -116.1897 314° West 358 412 34,000  Level Salt Lake Center
Fri 01:12:18 PM 43.8956 -116.2875 314° West 363 418 34,000  Level Salt Lake Center
Fri 01:13:20 PM 43.9739 -116.4003 314° West 362 417 34,000  Level Salt Lake Center
Fri 01:14:21 PM 44.0422 -116.4994 314° West 368 423 34,000  Level Salt Lake Center
Fri 01:15:23 PM 44.1211 -116.6147 314° West 366 421 34,000  Level Salt Lake Center
Fri 01:16:24 PM 44.1883 -116.7139 313° West 365 420 34,000  Level Salt Lake Center
Fri 01:17:26 PM 44.2572 -116.8139 314° West 369 425 34,000  Level Salt Lake Center
Fri 01:18:28 PM 44.3361 -116.9303 313° West 368 423 34,000  Level Salt Lake Center
Fri 01:19:29 PM 44.4050 -117.0328 313° West 373 429 34,000  Level Salt Lake Center
Fri 01:20:31 PM 44.4858 -117.1508 314° West 374 430 34,000  Level Salt Lake Center
Fri 01:21:32 PM 44.5547 -117.2539 313° West 377 434 34,000  Level Salt Lake Center
Fri 01:22:34 PM 44.6231 -117.3581 313° West 378 435 34,000  Level Salt Lake Center
Fri 01:23:35 PM 44.7047 -117.4797 313° West 381 438 34,000  Level Salt Lake Center
Fri 01:24:37 PM 44.7747 -117.5853 313° West 383 441 34,000  Level Salt Lake Center
Fri 01:25:39 PM 44.8569 -117.7103 313° West 388 447 34,000  Level Salt Lake Center
Fri 01:26:40 PM 44.9269 -117.8172 313° West 387 445 34,000  Level Salt Lake Center
Fri 01:27:36 PM 44.9972 -117.9247 313° West 386 444 34,000  Level Seattle Center
Fri 01:28:37 PM 45.0664 -118.0308 313° West 382 440 34,000  Level Seattle Center
Fri 01:29:38 PM 45.1364 -118.1372 313° West 385 443 34,000  Level Seattle Center
Fri 01:30:39 PM 45.2128 -118.2578 312° West 380 437 34,000  Level Seattle Center
Fri 01:31:40 PM 45.2842 -118.3683 313° West 380 437 34,000  Level Seattle Center
Fri 01:32:40 PM 45.3556 -118.4789 313° West 382 440 34,000  Level Seattle Center
Fri 01:33:41 PM 45.4261 -118.5908 312° West 381 438 34,000  Level Seattle Center
Fri 01:34:42 PM 45.4981 -118.7028 313° West 384 442 34,000  Level Seattle Center
Fri 01:35:43 PM 45.5689 -118.8158 312° West 384 442 34,000  Level Seattle Center
Fri 01:36:44 PM 45.6397 -118.9258 313° West 380 437 34,000  Level Seattle Center
Fri 01:37:45 PM 45.7089 -119.0386 311° West 382 440 34,000  Level Seattle Center
Fri 01:38:46 PM 45.7939 -119.1725 312° West 380 437 34,000  Level Seattle Center
Fri 01:39:47 PM 45.8639 -119.2856 312° West 381 438 34,000  Level Seattle Center
Fri 01:40:48 PM 45.9344 -119.4014 311° West 387 445 34,000  Level Seattle Center
Fri 01:41:49 PM 46.0067 -119.5164 312° West 391 450 34,000  Level Seattle Center
Fri 01:42:50 PM 46.0761 -119.6308 311° West 385 443 34,000  Level Seattle Center
Fri 01:43:50 PM 46.1475 -119.7458 312° West 385 443 34,000  Level Seattle Center
Fri 01:44:51 PM 46.2181 -119.8633 311° West 390 449 34,000  Level Seattle Center
Fri 01:45:52 PM 46.2900 -119.9808 312° West 392 451 34,000  Level Seattle Center
Fri 01:46:53 PM 46.3611 -120.0986 311° West 391 450 34,000  Level Seattle Center
Fri 01:47:54 PM 46.4328 -120.2167 311° West 392 451 34,000  Level Seattle Center
Fri 01:48:55 PM 46.5044 -120.3361 311° West 395 455 34,000  Level Seattle Center
Fri 01:49:56 PM 46.5867 -120.4833 309° West 393 452 34,000  Level Seattle Center
Fri 01:50:57 PM 46.6494 -120.6128 305° West 394 453 34,000  Level Seattle Center
Fri 01:51:58 PM 46.7111 -120.7442 304° West 394 453 34,000 -787 Level Seattle Center
Fri 01:52:59 PM 46.7733 -120.8753 305° West 394 453 32,400 -2,066 Descending Seattle Center
Fri 01:54:00 PM 46.8364 -121.0086 305° West 398 458 29,800 -2,430 Descending Seattle Center
Fri 01:55:00 PM 46.8964 -121.1369 304° West 384 442 27,500 -2,380 Descending Seattle Center
Fri 01:56:01 PM 46.9581 -121.2669 305° West 388 447 25,000 -2,361 Descending Seattle Center
Fri 01:57:02 PM 47.0169 -121.3958 304° West 381 438 22,700 -2,436 Descending Seattle Center
Fri 01:57:42 PM 47.0628 -121.4908 305° West 363 418 20,900 -2,447 Descending Seattle Center
Fri 01:58:18 PM 47.0956 -121.5639 303° West 353 406 19,600 -1,976 Descending Seattle Center
Fri 01:59:04 PM 47.1278 -121.6358 303° West 351 404 18,200 -2,066 Descending Seattle Center
Fri 01:59:19 PM 47.1503 -121.6803 307° West 341 392 17,500 -2,368 Descending Seattle Center
Fri 02:00:20 PM 47.2025 -121.7947 304° West 337 388 15,200 -1,402 Descending Seattle Center
Fri 02:01:06 PM 47.2317 -121.8603 303° West 329 379 15,000 -98 Descending Seattle Center
Fri 02:01:21 PM 47.2506 -121.9022 304° West 320 368 15,100 -689 Climbing Seattle Center
Fri 02:02:07 PM 47.2803 -121.9669 304° West 319 367 14,300 -1,570 Descending Seattle Center
Fri 02:03:08 PM 47.3386 -122.0944 304° West 315 362 12,300 -1,525 Descending Seattle Center
Fri 02:04:09 PM 47.3875 -122.1844 309° West 296 341 11,200 -1,328 Descending Seattle Center
Fri 02:05:10 PM 47.4661 -122.1800 North 286 329 9,600 -1,636 Descending Seattle Center
Fri 02:06:10 PM 47.5497 -122.1708 North 284 327 7,900 -1,388 Descending Seattle Center
Fri 02:07:11 PM 47.6203 -122.1628 North 253 291 6,800 -1,105 Descending Seattle Center
Fri 02:07:26 PM 47.6350 -122.1603 North 236 272 6,500 -1,452 Descending Seattle Center
Fri 02:08:13 PM 47.6892 -122.1517 North 233 268 5,300 -785 Descending Seattle Center
Fri 02:09:13 PM 47.7500 -122.1597 355° North 230 265 5,100 -149 Descending Seattle Center
Fri 02:10:14 PM 47.7403 -122.2458 261° West 219 252 5,000 -443 Descending Seattle Center
Fri 02:11:15 PM 47.7069 -122.3039 230° Southwest 192 221 4,200 -443 Descending Seattle Center
Fri 02:12:16 PM 47.6567 -122.3178 191° South 181 208 4,100 -508 Descending Seattle Center
Fri 02:13:25 PM 47.5994 -122.3181 180° South 177 204 3,100 -884 Descending Seattle Center
Fri 02:14:25 PM 47.5528 -122.3178 180° South 167 192 2,200 -783 Descending Seattle Center
Fri 02:15:20 PM 47.5194 -122.3175 180° South 151 174 1,600 -689 Descending Seattle Center
Fri 02:16:27 PM 47.4794 -122.3186 181° South 117 135 800 -541 Descending Seattle Center
Fri 02:17:22 PM 47.4483 -122.3189 180° South 127 146 500 -327 Descending Seattle Center
Fri 02:19:00 PM 47.4499 -122.3118 161° South  Level Estimated

Login

Don't have an account? Register now (free) for customized features, flight alerts, and more!